Time;durP1;ratioP1;P1;durP2;ratioP2;P2;SDS_P1;SDS_P2;PMS_P1;PMS_P2;Temp;Humidity;BMP_temperature;BMP_pressure;BME280_temperature;BME280_humidity;BME280_pressure;Samples;Min_cycle;Max_cycle;Signal;HPM_P1;HPM_P2
2023/04/17 00:01:17;;;;;;;;;;;7.00;99.90;;;;;;5063629;28;19933;-64
2023/04/17 00:03:51;;;;;;;;;;;7.00;99.90;;;;;;5061136;28;19925;-64
2023/04/17 00:06:23;;;;;;;;;;;7.10;99.90;;;;;;5056523;28;19929;-64
2023/04/17 00:08:55;;;;;;;;;;;7.10;99.90;;;;;;5065042;28;19931;-64
2023/04/17 00:11:27;;;;;;;;;;;7.10;99.90;;;;;;5068485;28;19925;-64
2023/04/17 00:13:53;;;;;;;;;;;7.10;99.90;;;;;;5065698;28;19925;-64
2023/04/17 00:16:20;;;;;;;;;;;7.00;99.90;;;;;;5057841;28;20043;-63
2023/04/17 00:18:52;;;;;;;;;;;7.00;99.90;;;;;;5068188;28;19978;-64
2023/04/17 00:21:24;;;;;;;;;;;7.00;99.90;;;;;;5065782;28;19928;-64
2023/04/17 00:23:56;;;;;;;;;;;7.00;99.90;;;;;;5062762;28;19925;-64
2023/04/17 00:26:23;;;;;;;;;;;7.00;99.90;;;;;;5058881;28;19924;-63
2023/04/17 00:28:55;;;;;;;;;;;7.00;99.90;;;;;;5056320;28;19979;-63
2023/04/17 00:31:28;;;;;;;;;;;7.00;99.90;;;;;;5056243;28;20024;-64
2023/04/17 00:33:55;;;;;;;;;;;7.00;99.90;;;;;;5053208;28;20015;-64
2023/04/17 00:36:22;;;;;;;;;;;7.00;99.90;;;;;;5051596;28;19925;-64
2023/04/17 00:38:54;;;;;;;;;;;7.00;99.90;;;;;;5050904;28;19982;-63
2023/04/17 00:41:26;;;;;;;;;;;7.00;99.90;;;;;;5057483;28;19924;-64
2023/04/17 00:43:52;;;;;;;;;;;7.00;99.90;;;;;;5061425;28;19924;-64
2023/04/17 00:46:24;;;;;;;;;;;7.00;99.90;;;;;;5057443;28;19936;-64
2023/04/17 00:48:51;;;;;;;;;;;7.00;99.90;;;;;;5059506;28;20039;-64
2023/04/17 00:51:23;;;;;;;;;;;7.10;99.90;;;;;;5058170;28;20448;-64
2023/04/17 00:53:55;;;;;;;;;;;7.10;99.90;;;;;;5056302;28;19978;-64
2023/04/17 00:56:27;;;;;;;;;;;7.10;99.90;;;;;;5056649;28;19982;-64
2023/04/17 00:59:00;;;;;;;;;;;7.10;99.90;;;;;;5048151;28;20553;-64
2023/04/17 01:01:32;;;;;;;;;;;7.10;99.90;;;;;;5070190;28;20361;-64
2023/04/17 01:04:06;;;;;;;;;;;7.10;99.90;;;;;;5066967;28;19936;-63
2023/04/17 01:06:38;;;;;;;;;;;7.10;99.90;;;;;;5052880;28;20011;-64
2023/04/17 01:09:05;;;;;;;;;;;7.10;99.90;;;;;;5047861;28;19928;-63
2023/04/17 01:11:38;;;;;;;;;;;7.00;99.90;;;;;;5040241;28;19925;-63
2023/04/17 01:14:10;;;;;;;;;;;7.00;99.90;;;;;;5034438;28;19925;-63
2023/04/17 01:16:43;;;;;;;;;;;7.00;99.90;;;;;;5063016;28;19948;-64
2023/04/17 01:19:15;;;;;;;;;;;7.00;99.90;;;;;;5048157;28;19936;-64
2023/04/17 01:21:47;;;;;;;;;;;7.00;99.90;;;;;;5052102;28;19925;-64
2023/04/17 01:24:20;;;;;;;;;;;7.00;99.90;;;;;;5068775;28;19947;-64
2023/04/17 01:26:52;;;;;;;;;;;7.00;99.90;;;;;;5066749;28;19928;-64
2023/04/17 01:29:24;;;;;;;;;;;7.00;99.90;;;;;;5048447;28;20132;-64
2023/04/17 01:31:56;;;;;;;;;;;7.00;99.90;;;;;;5062405;28;20404;-64
2023/04/17 01:34:28;;;;;;;;;;;7.00;99.90;;;;;;5057691;28;19932;-64
2023/04/17 01:37:00;;;;;;;;;;;7.00;99.90;;;;;;5060031;28;19936;-64
2023/04/17 01:39:31;;;;;;;;;;;6.90;99.90;;;;;;5063272;28;19974;-64
2023/04/17 01:42:03;;;;;;;;;;;7.00;99.90;;;;;;5064323;28;19925;-64
2023/04/17 01:44:36;;;;;;;;;;;6.90;99.90;;;;;;5067873;28;19976;-64
2023/04/17 01:47:08;;;;;;;;;;;7.00;99.90;;;;;;5064519;28;19990;-64
2023/04/17 01:49:40;;;;;;;;;;;6.90;99.90;;;;;;5053192;28;19929;-63
2023/04/17 01:52:12;;;;;;;;;;;6.90;99.90;;;;;;5041481;28;19960;-64
2023/04/17 01:54:44;;;;;;;;;;;7.00;99.90;;;;;;5059112;28;20014;-64
2023/04/17 01:57:15;;;;;;;;;;;7.00;99.90;;;;;;5061285;28;19939;-64
2023/04/17 01:59:48;;;;;;;;;;;7.00;99.90;;;;;;5062909;28;19928;-64
2023/04/17 02:02:20;;;;;;;;;;;7.00;99.90;;;;;;5062660;28;19951;-64
2023/04/17 02:04:51;;;;;;;;;;;7.00;99.90;;;;;;5063098;28;19924;-64
2023/04/17 02:07:23;;;;;;;;;;;7.00;99.90;;;;;;5069770;28;19925;-64
2023/04/17 02:09:56;;;;;;;;;;;7.00;99.90;;;;;;5071562;28;19924;-64
2023/04/17 02:12:28;;;;;;;;;;;7.00;99.90;;;;;;5054733;28;20392;-64
2023/04/17 02:15:00;;;;;;;;;;;7.00;99.90;;;;;;5066764;28;19924;-64
2023/04/17 02:17:32;;;;;;;;;;;7.00;99.90;;;;;;5038002;28;19931;-64
2023/04/17 02:20:06;;;;;;;;;;;7.00;99.90;;;;;;5063922;28;19932;-64
2023/04/17 02:22:38;;;;;;;;;;;7.00;99.90;;;;;;5060189;28;19929;-64
2023/04/17 02:25:04;;;;;;;;;;;7.00;99.90;;;;;;5059500;28;19932;-64
2023/04/17 02:27:31;;;;;;;;;;;7.00;99.90;;;;;;5057430;28;19928;-64
2023/04/17 02:30:07;;;;;;;;;;;7.00;99.90;;;;;;5068274;28;20080;-64
2023/04/17 02:32:39;;;;;;;;;;;7.00;99.90;;;;;;5049551;28;20305;-64
2023/04/17 02:35:10;;;;;;;;;;;7.00;99.90;;;;;;5053382;28;20009;-64
2023/04/17 02:37:37;;;;;;;;;;;7.10;99.90;;;;;;5063097;28;19931;-64
2023/04/17 02:40:06;;;;;;;;;;;7.10;99.90;;;;;;5064229;28;19955;-64
2023/04/17 02:42:37;;;;;;;;;;;7.10;99.90;;;;;;5039881;28;19929;-63
2023/04/17 02:45:10;;;;;;;;;;;7.10;99.90;;;;;;5060594;28;19925;-64
2023/04/17 02:47:38;;;;;;;;;;;7.10;99.90;;;;;;5061589;28;19925;-64
2023/04/17 02:50:10;;;;;;;;;;;7.10;99.90;;;;;;5065618;28;19954;-64
2023/04/17 02:52:47;;;;;;;;;;;7.10;99.90;;;;;;5059289;28;19925;-64
2023/04/17 02:55:19;;;;;;;;;;;7.00;99.90;;;;;;5070574;28;19924;-64
2023/04/17 02:57:51;;;;;;;;;;;7.00;99.90;;;;;;5069954;28;20312;-64
2023/04/17 03:00:25;;;;;;;;;;;7.00;99.90;;;;;;5066114;28;19932;-64
2023/04/17 03:02:57;;;;;;;;;;;7.00;99.90;;;;;;5065291;28;19960;-64
2023/04/17 03:05:29;;;;;;;;;;;7.00;99.90;;;;;;5061710;28;20015;-64
2023/04/17 03:08:00;;;;;;;;;;;7.00;99.90;;;;;;5060293;28;20379;-64
2023/04/17 03:10:41;;;;;;;;;;;7.00;99.90;;;;;;5059363;28;20350;-64
2023/04/17 03:13:08;;;;;;;;;;;7.00;99.90;;;;;;5058311;28;19956;-63
2023/04/17 03:15:40;;;;;;;;;;;7.00;99.90;;;;;;5064963;28;19931;-63
2023/04/17 03:18:12;;;;;;;;;;;7.00;99.90;;;;;;5047182;28;19925;-64
2023/04/17 03:20:44;;;;;;;;;;;7.00;99.90;;;;;;5067891;28;20384;-64
2023/04/17 03:23:11;;;;;;;;;;;7.00;99.90;;;;;;5068258;28;20019;-64
2023/04/17 03:25:43;;;;;;;;;;;7.00;99.90;;;;;;5066023;28;19935;-64
2023/04/17 03:28:15;;;;;;;;;;;7.00;99.90;;;;;;5048127;28;19931;-64
2023/04/17 03:30:48;;;;;;;;;;;7.00;99.90;;;;;;5061634;28;19994;-64
2023/04/17 03:33:19;;;;;;;;;;;7.00;99.90;;;;;;5048643;28;20548;-64
2023/04/17 03:35:52;;;;;;;;;;;7.00;99.90;;;;;;5052156;28;19925;-63
2023/04/17 03:38:24;;;;;;;;;;;7.00;99.90;;;;;;5041409;28;20385;-64
2023/04/17 03:40:52;;;;;;;;;;;7.00;99.90;;;;;;5064413;28;19924;-63
2023/04/17 03:43:24;;;;;;;;;;;7.00;99.90;;;;;;5070349;28;19929;-64
2023/04/17 03:45:56;;;;;;;;;;;7.00;99.90;;;;;;5070028;28;20333;-64
2023/04/17 03:48:23;;;;;;;;;;;7.00;99.90;;;;;;5066014;28;19925;-63
2023/04/17 03:50:50;;;;;;;;;;;6.90;99.90;;;;;;5060916;28;19951;-63
2023/04/17 03:53:22;;;;;;;;;;;7.00;99.90;;;;;;5059464;28;19925;-64
2023/04/17 03:55:54;;;;;;;;;;;6.90;99.90;;;;;;5059656;28;20384;-63
2023/04/17 03:58:31;;;;;;;;;;;7.00;99.90;;;;;;5056014;28;19931;-64
2023/04/17 04:01:09;;;;;;;;;;;7.00;99.90;;;;;;5039907;28;19974;-65
2023/04/17 04:03:59;;;;;;;;;;;7.10;99.90;;;;;;5051620;28;20385;-64
2023/04/17 04:06:31;;;;;;;;;;;7.10;99.90;;;;;;5054454;28;20473;-63
2023/04/17 04:08:58;;;;;;;;;;;7.00;99.90;;;;;;5052408;28;19933;-64
2023/04/17 04:11:26;;;;;;;;;;;7.00;99.90;;;;;;5057215;28;20286;-64
2023/04/17 04:13:57;;;;;;;;;;;7.00;99.90;;;;;;5061470;28;20392;-64
2023/04/17 04:16:29;;;;;;;;;;;7.00;99.90;;;;;;5062557;28;19994;-65
2023/04/17 04:19:11;;;;;;;;;;;7.00;99.90;;;;;;5049346;28;20404;-64
2023/04/17 04:21:44;;;;;;;;;;;7.00;99.90;;;;;;5058669;28;19994;-64
2023/04/17 04:24:16;;;;;;;;;;;7.00;99.90;;;;;;5042549;28;19968;-64
2023/04/17 04:26:48;;;;;;;;;;;7.00;99.90;;;;;;5036496;28;19951;-64
2023/04/17 04:29:24;;;;;;;;;;;7.00;99.90;;;;;;5062114;28;20389;-63
2023/04/17 04:32:02;;;;;;;;;;;7.00;99.90;;;;;;5038404;28;19925;-64
2023/04/17 04:34:35;;;;;;;;;;;7.00;99.90;;;;;;5045229;28;19972;-64
2023/04/17 04:37:07;;;;;;;;;;;7.00;99.90;;;;;;5048883;28;20023;-64
2023/04/17 04:39:41;;;;;;;;;;;7.00;99.90;;;;;;5060625;28;19931;-63
2023/04/17 04:42:20;;;;;;;;;;;7.00;99.90;;;;;;5057250;28;19937;-64
2023/04/17 04:45:07;;;;;;;;;;;7.00;99.90;;;;;;5060333;28;19932;-64
2023/04/17 04:47:34;;;;;;;;;;;7.00;99.90;;;;;;5055768;28;19929;-63
2023/04/17 04:50:07;;;;;;;;;;;7.00;99.90;;;;;;5057270;28;20148;-63
2023/04/17 04:52:39;;;;;;;;;;;7.00;99.90;;;;;;5047933;28;20340;-63
2023/04/17 04:55:25;;;;;;;;;;;7.00;99.90;;;;;;5052215;28;19936;-64
2023/04/17 04:57:57;;;;;;;;;;;6.90;99.90;;;;;;5059075;28;19940;-64
2023/04/17 05:00:30;;;;;;;;;;;7.00;99.90;;;;;;5064777;28;20388;-63
2023/04/17 05:03:02;;;;;;;;;;;7.00;99.90;;;;;;5052736;28;19929;-63
2023/04/17 05:05:34;;;;;;;;;;;7.00;99.90;;;;;;5062827;28;20423;-64
2023/04/17 05:08:08;;;;;;;;;;;7.00;99.90;;;;;;5063875;28;20044;-63
2023/04/17 05:10:44;;;;;;;;;;;7.00;99.90;;;;;;5048812;28;19936;-63
2023/04/17 05:13:16;;;;;;;;;;;7.00;99.90;;;;;;5051610;28;19971;-63
2023/04/17 05:15:48;;;;;;;;;;;7.00;99.90;;;;;;5061252;28;20034;-64
2023/04/17 05:18:24;;;;;;;;;;;7.10;99.90;;;;;;5066451;28;19928;-63
2023/04/17 05:20:56;;;;;;;;;;;7.10;99.90;;;;;;5064866;28;20016;-63
2023/04/17 05:23:28;;;;;;;;;;;7.20;99.90;;;;;;5065948;28;19998;-63
2023/04/17 05:26:00;;;;;;;;;;;7.20;99.90;;;;;;5065800;28;19947;-63
2023/04/17 05:28:28;;;;;;;;;;;7.30;99.90;;;;;;5062111;28;19932;-63
2023/04/17 05:31:00;;;;;;;;;;;7.30;99.90;;;;;;5046202;28;19974;-63
2023/04/17 05:33:37;;;;;;;;;;;7.30;99.90;;;;;;5057178;28;20590;-64
2023/04/17 05:36:09;;;;;;;;;;;7.30;99.90;;;;;;5034871;28;19924;-63
2023/04/17 05:38:41;;;;;;;;;;;7.30;99.90;;;;;;5063434;28;20022;-63
2023/04/17 05:41:13;;;;;;;;;;;7.40;99.90;;;;;;5064251;28;19931;-63
2023/04/17 05:43:45;;;;;;;;;;;7.40;99.90;;;;;;5069777;28;19928;-64
2023/04/17 05:46:17;;;;;;;;;;;7.50;99.90;;;;;;5050276;28;19929;-63
2023/04/17 05:48:49;;;;;;;;;;;7.50;99.90;;;;;;5064148;28;19934;-63
2023/04/17 05:51:22;;;;;;;;;;;7.50;99.90;;;;;;5044153;28;20039;-64
2023/04/17 05:53:49;;;;;;;;;;;7.50;99.90;;;;;;5059865;28;20407;-63
2023/04/17 05:56:16;;;;;;;;;;;7.60;99.90;;;;;;5058888;28;19925;-63
2023/04/17 05:58:48;;;;;;;;;;;7.60;99.90;;;;;;5070556;28;19950;-63
2023/04/17 06:01:21;;;;;;;;;;;7.70;99.90;;;;;;5072422;28;20384;-64
2023/04/17 06:03:51;;;;;;;;;;;7.70;99.90;;;;;;5059065;28;19929;-63
2023/04/17 06:06:22;;;;;;;;;;;7.70;99.90;;;;;;5056271;28;19925;-63
2023/04/17 06:08:52;;;;;;;;;;;7.80;99.90;;;;;;5059343;28;20328;-64
2023/04/17 06:11:26;;;;;;;;;;;7.80;99.90;;;;;;5077899;28;19925;-64
2023/04/17 06:13:57;;;;;;;;;;;7.80;99.90;;;;;;5064619;28;19951;-63
2023/04/17 06:16:30;;;;;;;;;;;7.80;99.90;;;;;;5059215;28;19962;-62
2023/04/17 06:19:02;;;;;;;;;;;7.80;99.90;;;;;;5067303;28;19929;-63
2023/04/17 06:21:33;;;;;;;;;;;7.80;99.90;;;;;;5069379;28;20019;-63
2023/04/17 06:24:05;;;;;;;;;;;7.80;99.90;;;;;;5082458;28;19925;-64
2023/04/17 06:26:43;;;;;;;;;;;7.80;99.90;;;;;;5054803;28;19932;-63
2023/04/17 06:29:15;;;;;;;;;;;7.80;99.90;;;;;;5056384;28;20282;-64
2023/04/17 06:31:47;;;;;;;;;;;7.80;99.90;;;;;;5062108;28;19932;-64
2023/04/17 06:34:17;;;;;;;;;;;7.80;99.90;;;;;;5060763;28;20384;-63
2023/04/17 06:36:46;;;;;;;;;;;7.80;99.90;;;;;;5062729;28;19924;-64
2023/04/17 06:39:18;;;;;;;;;;;7.80;99.90;;;;;;5064404;28;20297;-63
2023/04/17 06:41:47;;;;;;;;;;;7.80;99.90;;;;;;5065408;28;19928;-64
2023/04/17 06:44:25;;;;;;;;;;;7.80;99.90;;;;;;5065112;28;19992;-63
2023/04/17 06:47:02;;;;;;;;;;;7.80;99.90;;;;;;5055581;28;19925;-64
2023/04/17 06:49:36;;;;;;;;;;;7.80;99.90;;;;;;5050731;28;19929;-64
2023/04/17 06:52:10;;;;;;;;;;;7.90;99.90;;;;;;5064873;28;19971;-64
2023/04/17 06:54:42;;;;;;;;;;;8.10;99.90;;;;;;5060578;28;19925;-63
2023/04/17 06:57:15;;;;;;;;;;;8.20;99.90;;;;;;5061718;28;19929;-63
2023/04/17 06:59:47;;;;;;;;;;;8.30;99.90;;;;;;5060366;28;19978;-63
2023/04/17 07:02:19;;;;;;;;;;;8.40;99.90;;;;;;5061230;28;20269;-63
2023/04/17 07:04:46;;;;;;;;;;;8.50;99.90;;;;;;5062791;28;20553;-63
2023/04/17 07:07:17;;;;;;;;;;;8.50;99.90;;;;;;5068169;28;19936;-63
2023/04/17 07:09:50;;;;;;;;;;;8.50;99.90;;;;;;5056624;28;20642;-63
2023/04/17 07:12:16;;;;;;;;;;;8.50;99.90;;;;;;5058089;28;19925;-63
2023/04/17 07:14:49;;;;;;;;;;;8.50;99.90;;;;;;5062771;28;19936;-63
2023/04/17 07:17:20;;;;;;;;;;;8.50;99.90;;;;;;5066739;28;19933;-63
2023/04/17 07:19:52;;;;;;;;;;;8.50;99.90;;;;;;5062139;28;19925;-63
2023/04/17 07:22:24;;;;;;;;;;;8.40;99.90;;;;;;5059943;28;19924;-63
2023/04/17 07:24:56;;;;;;;;;;;8.40;99.90;;;;;;5046864;28;19924;-64
2023/04/17 07:27:28;;;;;;;;;;;8.40;99.90;;;;;;5061931;28;19948;-63
2023/04/17 07:29:59;;;;;;;;;;;8.40;99.90;;;;;;5055371;28;19929;-64
2023/04/17 07:32:27;;;;;;;;;;;8.50;99.90;;;;;;5052220;28;19936;-63
2023/04/17 07:34:59;;;;;;;;;;;8.50;99.90;;;;;;5052920;28;19929;-63
2023/04/17 07:37:31;;;;;;;;;;;8.60;99.90;;;;;;5056460;28;19932;-64
2023/04/17 07:40:08;;;;;;;;;;;8.70;99.90;;;;;;5060092;28;19950;-63
2023/04/17 07:42:35;;;;;;;;;;;8.80;99.90;;;;;;5056513;28;19936;-63
2023/04/17 07:45:03;;;;;;;;;;;9.00;99.90;;;;;;5059630;28;20014;-63
2023/04/17 07:47:30;;;;;;;;;;;9.10;99.90;;;;;;5060873;28;19929;-64
2023/04/17 07:50:02;;;;;;;;;;;9.20;99.90;;;;;;5064585;28;19929;-63
2023/04/17 07:52:34;;;;;;;;;;;9.20;99.90;;;;;;5047712;28;19925;-64
2023/04/17 07:55:06;;;;;;;;;;;9.20;99.90;;;;;;5054578;28;20400;-64
2023/04/17 07:57:33;;;;;;;;;;;9.20;99.90;;;;;;5065941;28;20014;-64
2023/04/17 08:00:07;;;;;;;;;;;9.30;99.90;;;;;;5045890;28;19971;-63
2023/04/17 08:02:41;;;;;;;;;;;9.30;99.90;;;;;;5055079;28;19935;-63
2023/04/17 08:05:08;;;;;;;;;;;9.30;99.90;;;;;;5057348;28;20032;-63
2023/04/17 08:07:36;;;;;;;;;;;9.30;99.90;;;;;;5060228;28;19928;-64
2023/04/17 08:10:03;;;;;;;;;;;9.30;99.90;;;;;;5059762;28;19932;-63
2023/04/17 08:12:35;;;;;;;;;;;9.30;99.90;;;;;;5058200;28;19928;-63
2023/04/17 08:15:07;;;;;;;;;;;9.40;99.90;;;;;;5058103;28;20400;-63
2023/04/17 08:17:40;;;;;;;;;;;9.50;99.90;;;;;;5050719;28;19928;-63
2023/04/17 08:20:12;;;;;;;;;;;9.50;99.90;;;;;;5058513;28;19983;-63
2023/04/17 08:22:45;;;;;;;;;;;9.70;99.90;;;;;;5056581;28;19925;-63
2023/04/17 08:25:16;;;;;;;;;;;9.90;99.90;;;;;;5054348;28;20527;-63
2023/04/17 08:27:48;;;;;;;;;;;9.90;99.90;;;;;;5061265;28;19928;-63
2023/04/17 08:30:20;;;;;;;;;;;9.90;99.90;;;;;;5060238;28;20348;-64
2023/04/17 08:32:54;;;;;;;;;;;9.90;99.90;;;;;;5065043;28;19989;-63
2023/04/17 08:35:25;;;;;;;;;;;9.90;99.90;;;;;;5061993;28;19932;-63
2023/04/17 08:37:58;;;;;;;;;;;9.90;99.90;;;;;;5063478;28;20296;-63
2023/04/17 08:40:30;;;;;;;;;;;9.90;99.90;;;;;;5065462;28;19967;-63
2023/04/17 08:43:03;;;;;;;;;;;9.90;99.90;;;;;;5059923;28;19982;-63
2023/04/17 08:45:36;;;;;;;;;;;9.90;99.90;;;;;;5060393;28;19924;-64
2023/04/17 08:48:04;;;;;;;;;;;10.10;99.90;;;;;;5067572;28;19932;-63
2023/04/17 08:50:35;;;;;;;;;;;10.20;99.90;;;;;;5058044;28;19924;-63
2023/04/17 08:53:07;;;;;;;;;;;10.40;99.90;;;;;;5058062;28;20300;-63
2023/04/17 08:55:34;;;;;;;;;;;10.50;99.90;;;;;;5059577;28;19968;-63
2023/04/17 08:58:07;;;;;;;;;;;10.50;99.90;;;;;;5040324;28;20343;-63
2023/04/17 09:00:41;;;;;;;;;;;10.60;99.90;;;;;;5052628;28;19933;-64
2023/04/17 09:03:12;;;;;;;;;;;10.60;99.90;;;;;;5051928;28;19937;-64
2023/04/17 09:05:44;;;;;;;;;;;10.60;99.90;;;;;;5049833;28;19924;-64
2023/04/17 09:08:21;;;;;;;;;;;10.60;99.90;;;;;;5055976;28;19924;-64
2023/04/17 09:10:53;;;;;;;;;;;10.70;99.90;;;;;;5062541;28;20416;-63
2023/04/17 09:13:26;;;;;;;;;;;10.80;99.90;;;;;;5058613;28;19979;-63
2023/04/17 09:16:29;;;;;;;;;;;11.00;99.90;;;;;;5058589;28;19964;-63
2023/04/17 09:19:05;;;;;;;;;;;11.20;99.90;;;;;;5063071;28;20019;-63
2023/04/17 09:21:37;;;;;;;;;;;11.40;99.90;;;;;;5049127;28;19991;-63
2023/04/17 09:24:08;;;;;;;;;;;11.60;99.90;;;;;;5060633;28;19925;-63
2023/04/17 09:26:40;;;;;;;;;;;11.60;99.90;;;;;;5053255;28;19986;-63
2023/04/17 09:29:13;;;;;;;;;;;11.70;99.90;;;;;;5046333;28;19928;-63
2023/04/17 09:31:46;;;;;;;;;;;11.90;99.90;;;;;;5054883;28;19929;-63
2023/04/17 09:34:19;;;;;;;;;;;12.00;99.90;;;;;;5059995;28;20292;-64
2023/04/17 09:36:52;;;;;;;;;;;11.90;99.90;;;;;;5058062;28;19925;-63
2023/04/17 09:39:24;;;;;;;;;;;11.80;99.90;;;;;;5059518;28;19929;-63
2023/04/17 09:42:04;;;;;;;;;;;11.70;99.90;;;;;;5060428;28;20410;-63
2023/04/17 09:44:36;;;;;;;;;;;11.60;99.90;;;;;;5064127;28;19936;-63
2023/04/17 09:47:08;;;;;;;;;;;11.60;99.90;;;;;;5046601;28;19928;-63
2023/04/17 09:49:48;;;;;;;;;;;11.60;99.90;;;;;;5051904;28;19933;-64
2023/04/17 09:52:24;;;;;;;;;;;11.60;99.90;;;;;;5037641;28;19929;-63
2023/04/17 09:54:56;;;;;;;;;;;11.50;99.90;;;;;;5056911;28;19924;-63
2023/04/17 09:57:28;;;;;;;;;;;11.40;99.90;;;;;;5055219;28;19928;-63
2023/04/17 10:00:00;;;;;;;;;;;11.30;99.90;;;;;;5054726;28;19925;-64
2023/04/17 10:02:32;;;;;;;;;;;11.30;99.90;;;;;;5057113;28;19993;-64
2023/04/17 10:05:07;;;;;;;;;;;11.40;99.90;;;;;;5059054;28;19929;-63
2023/04/17 10:07:37;;;;;;;;;;;11.60;99.90;;;;;;5064166;28;19959;-63
2023/04/17 10:10:11;;;;;;;;;;;12.10;99.90;;;;;;5062691;28;19925;-63
2023/04/17 10:12:43;;;;;;;;;;;12.40;99.90;;;;;;5056655;28;19928;-63
2023/04/17 10:15:15;;;;;;;;;;;12.70;99.90;;;;;;5058198;28;19928;-63
2023/04/17 10:17:48;;;;;;;;;;;12.90;99.90;;;;;;5059492;28;19929;-64
2023/04/17 10:20:23;;;;;;;;;;;12.90;99.90;;;;;;5067541;28;19925;-63
2023/04/17 10:22:54;;;;;;;;;;;12.80;99.90;;;;;;5061803;28;19924;-63
2023/04/17 10:25:27;;;;;;;;;;;12.80;99.90;;;;;;5068021;28;19983;-63
2023/04/17 10:28:00;;;;;;;;;;;12.80;99.90;;;;;;5062447;28;19925;-63
2023/04/17 10:30:52;;;;;;;;;;;12.80;99.90;;;;;;5048145;28;19925;-63
2023/04/17 10:33:25;;;;;;;;;;;13.00;99.90;;;;;;5068964;28;19924;-63
2023/04/17 10:35:56;;;;;;;;;;;13.10;99.90;;;;;;5071379;28;19929;-63
2023/04/17 10:38:32;;;;;;;;;;;13.20;99.90;;;;;;5073085;28;19930;-63
2023/04/17 10:41:00;;;;;;;;;;;13.40;99.90;;;;;;5051617;28;19936;-63
2023/04/17 10:43:31;;;;;;;;;;;13.40;99.90;;;;;;5062383;28;19974;-63
2023/04/17 10:46:13;;;;;;;;;;;13.50;99.90;;;;;;5061682;28;19982;-63
2023/04/17 10:48:50;;;;;;;;;;;13.20;99.90;;;;;;5061272;28;19932;-63
2023/04/17 10:51:22;;;;;;;;;;;13.00;99.90;;;;;;5064789;28;19932;-63
2023/04/17 10:53:54;;;;;;;;;;;12.90;99.90;;;;;;5061126;28;19925;-63
2023/04/17 10:56:25;;;;;;;;;;;12.80;99.90;;;;;;5060068;28;19970;-63
2023/04/17 10:58:58;;;;;;;;;;;12.90;99.90;;;;;;5044597;28;19933;-63
2023/04/17 11:01:38;;;;;;;;;;;12.90;99.90;;;;;;5056599;28;20474;-63
2023/04/17 11:04:17;;;;;;;;;;;12.80;99.90;;;;;;5058749;28;20368;-63
2023/04/17 11:06:51;;;;;;;;;;;12.50;99.90;;;;;;5068537;28;20385;-63
2023/04/17 11:09:24;;;;;;;;;;;12.40;99.90;;;;;;5047872;28;19932;-63
2023/04/17 11:12:02;;;;;;;;;;;12.20;99.90;;;;;;5062835;28;20401;-63
2023/04/17 11:14:34;;;;;;;;;;;12.00;99.90;;;;;;5059497;28;19929;-63
2023/04/17 11:17:07;;;;;;;;;;;11.70;99.90;;;;;;5034620;28;19936;-63
2023/04/17 11:19:34;;;;;;;;;;;11.60;99.90;;;;;;5060121;28;19978;-63
2023/04/17 11:22:06;;;;;;;;;;;11.40;99.90;;;;;;5051754;28;19928;-63
2023/04/17 11:24:37;;;;;;;;;;;11.30;99.90;;;;;;5052902;28;19933;-63
2023/04/17 11:27:09;;;;;;;;;;;11.10;99.90;;;;;;5050773;28;19928;-63
2023/04/17 11:29:41;;;;;;;;;;;10.90;99.90;;;;;;5052736;28;20459;-63
2023/04/17 11:32:12;;;;;;;;;;;10.80;99.90;;;;;;5061541;28;19924;-63
2023/04/17 11:34:40;;;;;;;;;;;10.90;99.90;;;;;;5061852;28;19935;-65
2023/04/17 11:37:12;;;;;;;;;;;11.10;99.90;;;;;;5056442;28;19940;-64
2023/04/17 11:39:44;;;;;;;;;;;11.30;99.90;;;;;;5054161;28;19978;-64
2023/04/17 11:42:24;;;;;;;;;;;11.40;99.90;;;;;;5057340;28;19940;-63
2023/04/17 11:44:51;;;;;;;;;;;11.50;99.90;;;;;;5056579;28;19929;-63
2023/04/17 11:47:22;;;;;;;;;;;11.50;99.90;;;;;;5050294;28;19983;-63
2023/04/17 11:49:54;;;;;;;;;;;11.40;99.90;;;;;;5056704;28;19956;-63
2023/04/17 11:52:21;;;;;;;;;;;11.40;99.90;;;;;;5060350;28;20374;-64
2023/04/17 11:54:56;;;;;;;;;;;11.40;99.90;;;;;;5055977;28;20401;-64
2023/04/17 11:57:28;;;;;;;;;;;11.50;99.90;;;;;;5053160;28;19937;-63
2023/04/17 11:59:55;;;;;;;;;;;11.70;99.90;;;;;;5059945;28;19931;-63
2023/04/17 12:02:32;;;;;;;;;;;11.80;99.90;;;;;;5061852;28;20656;-63
2023/04/17 12:05:13;;;;;;;;;;;12.00;99.90;;;;;;5064081;28;19983;-64
2023/04/17 12:07:45;;;;;;;;;;;12.10;99.90;;;;;;5061713;28;20734;-63
2023/04/17 12:10:17;;;;;;;;;;;12.20;99.90;;;;;;5062432;28;19928;-63
2023/04/17 12:12:49;;;;;;;;;;;12.20;99.90;;;;;;5062683;28;19932;-63
2023/04/17 12:15:20;;;;;;;;;;;12.30;99.90;;;;;;5067787;28;19943;-63
2023/04/17 12:17:52;;;;;;;;;;;12.30;99.90;;;;;;5064907;28;19990;-63
2023/04/17 12:20:19;;;;;;;;;;;12.40;99.90;;;;;;5065308;28;20344;-64
2023/04/17 12:22:50;;;;;;;;;;;12.50;99.90;;;;;;5044671;28;20348;-64
2023/04/17 12:25:22;;;;;;;;;;;12.60;99.90;;;;;;5060849;28;19929;-63
2023/04/17 12:27:49;;;;;;;;;;;12.60;99.90;;;;;;5059484;28;19935;-63
2023/04/17 12:30:15;;;;;;;;;;;12.70;99.90;;;;;;5052780;28;20396;-63
2023/04/17 12:32:48;;;;;;;;;;;12.70;99.90;;;;;;5053210;28;20467;-63
2023/04/17 12:35:14;;;;;;;;;;;12.70;99.90;;;;;;5055705;28;20371;-63
2023/04/17 12:37:52;;;;;;;;;;;12.80;99.90;;;;;;5056214;28;20404;-63
2023/04/17 12:40:21;;;;;;;;;;;13.00;99.90;;;;;;5061076;28;19924;-63
2023/04/17 12:42:48;;;;;;;;;;;13.20;99.90;;;;;;5055786;28;19975;-64
2023/04/17 12:45:20;;;;;;;;;;;13.40;99.90;;;;;;5059012;28;19925;-63
2023/04/17 12:47:52;;;;;;;;;;;13.70;99.90;;;;;;5061951;28;19928;-64
2023/04/17 12:50:24;;;;;;;;;;;13.80;99.90;;;;;;5055824;28;19928;-63
2023/04/17 12:52:56;;;;;;;;;;;14.00;99.90;;;;;;5061681;28;19928;-63
2023/04/17 12:55:25;;;;;;;;;;;14.00;99.90;;;;;;5042993;28;19929;-63
2023/04/17 12:57:52;;;;;;;;;;;14.00;99.90;;;;;;5053585;28;19932;-63
2023/04/17 13:00:24;;;;;;;;;;;14.00;99.90;;;;;;5053616;28;19932;-63
2023/04/17 13:02:55;;;;;;;;;;;13.80;99.90;;;;;;5062848;28;19925;-63
2023/04/17 13:05:27;;;;;;;;;;;13.60;99.90;;;;;;5058503;28;19932;-63
2023/04/17 13:07:59;;;;;;;;;;;13.50;99.90;;;;;;5050069;28;19928;-63
2023/04/17 13:10:31;;;;;;;;;;;13.30;99.90;;;;;;5058551;28;20506;-63
2023/04/17 13:13:03;;;;;;;;;;;13.00;99.90;;;;;;5060316;28;19925;-63
2023/04/17 13:15:35;;;;;;;;;;;12.80;99.90;;;;;;5056563;28;19978;-63
2023/04/17 13:18:09;;;;;;;;;;;12.70;99.90;;;;;;5052204;28;19929;-63
2023/04/17 13:20:41;;;;;;;;;;;12.50;99.90;;;;;;5051473;28;20403;-63
2023/04/17 13:23:13;;;;;;;;;;;12.40;99.90;;;;;;5054933;28;19932;-63
2023/04/17 13:25:45;;;;;;;;;;;12.30;99.90;;;;;;5056736;28;20289;-63
2023/04/17 13:28:17;;;;;;;;;;;12.20;99.90;;;;;;5058794;28;19932;-63
2023/04/17 13:30:49;;;;;;;;;;;12.10;99.90;;;;;;5054246;28;19929;-63
2023/04/17 13:33:20;;;;;;;;;;;12.10;99.90;;;;;;5062082;28;19971;-63
2023/04/17 13:35:52;;;;;;;;;;;12.00;99.90;;;;;;5057808;28;20312;-63
2023/04/17 13:38:24;;;;;;;;;;;12.00;99.90;;;;;;5047821;28;19928;-63
2023/04/17 13:40:56;;;;;;;;;;;11.90;99.90;;;;;;5056628;28;19925;-63
2023/04/17 13:43:27;;;;;;;;;;;11.80;99.90;;;;;;5053100;28;19929;-63
2023/04/17 13:45:55;;;;;;;;;;;11.80;99.90;;;;;;5054359;28;20307;-63
2023/04/17 13:48:27;;;;;;;;;;;11.70;99.90;;;;;;5038139;28;20355;-63
2023/04/17 13:50:58;;;;;;;;;;;11.50;99.90;;;;;;5057779;28;19970;-63
2023/04/17 13:53:30;;;;;;;;;;;11.40;99.90;;;;;;5059499;28;19925;-64
2023/04/17 13:56:02;;;;;;;;;;;11.20;99.90;;;;;;5060186;28;19929;-63
2023/04/17 13:58:34;;;;;;;;;;;11.10;99.90;;;;;;5060826;28;19932;-63
2023/04/17 14:01:06;;;;;;;;;;;11.10;99.90;;;;;;5065921;28;19928;-63
2023/04/17 14:03:38;;;;;;;;;;;11.00;99.90;;;;;;5056021;28;20024;-63
2023/04/17 14:06:10;;;;;;;;;;;11.00;99.90;;;;;;5053505;28;19929;-63
2023/04/17 14:08:44;;;;;;;;;;;11.10;99.90;;;;;;5056664;28;20014;-63
2023/04/17 14:11:17;;;;;;;;;;;11.10;99.90;;;;;;5058943;28;19933;-63
2023/04/17 14:13:52;;;;;;;;;;;11.20;99.90;;;;;;5057546;28;20352;-63
2023/04/17 14:16:24;;;;;;;;;;;11.20;99.90;;;;;;5062575;28;19924;-63
2023/04/17 14:18:50;;;;;;;;;;;11.20;99.90;;;;;;5060931;28;19954;-63
2023/04/17 14:21:22;;;;;;;;;;;11.30;99.90;;;;;;5061133;28;19924;-63
2023/04/17 14:23:55;;;;;;;;;;;11.40;99.90;;;;;;5057810;28;19990;-63
2023/04/17 14:26:27;;;;;;;;;;;11.40;99.90;;;;;;5054105;28;20070;-63
2023/04/17 14:28:59;;;;;;;;;;;11.40;99.90;;;;;;5051049;28;20486;-64
2023/04/17 14:31:25;;;;;;;;;;;11.40;99.90;;;;;;5051697;28;20384;-63
2023/04/17 14:33:53;;;;;;;;;;;11.30;99.90;;;;;;5058074;28;19952;-63
2023/04/17 14:36:25;;;;;;;;;;;11.20;99.90;;;;;;5059846;28;19928;-63
2023/04/17 14:38:57;;;;;;;;;;;11.10;99.90;;;;;;5056431;28;19970;-63
2023/04/17 14:41:32;;;;;;;;;;;11.10;99.90;;;;;;5060395;28;19929;-63
2023/04/17 14:44:04;;;;;;;;;;;11.00;99.90;;;;;;5058729;28;20018;-63
2023/04/17 14:46:36;;;;;;;;;;;11.00;99.90;;;;;;5055334;28;19933;-63
2023/04/17 14:49:08;;;;;;;;;;;10.90;99.90;;;;;;5048097;28;19929;-63
2023/04/17 14:51:40;;;;;;;;;;;10.80;99.90;;;;;;5050300;28;20361;-63